createdAt,value
2018-07-04T00:01:19.698Z,77.30
2018-07-04T00:04:03.866Z,77.50
2018-07-04T00:06:48.003Z,77.60
2018-07-04T00:09:32.226Z,77.30
2018-07-04T00:14:54.579Z,77.40
2018-07-04T00:17:38.606Z,77.70
2018-07-04T00:20:40.693Z,78.00
2018-07-04T00:23:24.629Z,78.10
2018-07-04T00:26:08.720Z,78.00
2018-07-04T00:28:52.874Z,77.90
2018-07-04T00:31:37.048Z,78.20
2018-07-04T00:34:21.364Z,78.50
2018-07-04T00:37:05.392Z,78.50
2018-07-04T00:39:49.241Z,78.90
2018-07-04T00:42:33.163Z,79.00
2018-07-04T00:45:17.163Z,78.50
2018-07-04T00:48:01.343Z,78.40
2018-07-04T00:50:46.681Z,78.30
2018-07-04T00:53:30.509Z,78.40
2018-07-04T00:56:14.412Z,78.40
2018-07-04T00:58:58.544Z,78.40
2018-07-04T01:01:42.635Z,78.40
2018-07-04T01:04:26.665Z,78.50
2018-07-04T01:07:11.016Z,78.50
2018-07-04T01:09:55.313Z,79.00
2018-07-04T01:12:39.267Z,79.20
2018-07-04T01:15:23.345Z,79.50
2018-07-04T01:18:07.371Z,79.80
2018-07-04T01:20:58.662Z,79.70
2018-07-04T01:23:42.581Z,79.40
2018-07-04T01:26:26.498Z,79.60
2018-07-04T01:29:10.381Z,79.70
2018-07-04T01:31:54.535Z,80.20
2018-07-04T01:34:39.437Z,79.80
2018-07-04T01:37:23.564Z,80.10
2018-07-04T01:40:07.625Z,80.50
2018-07-04T01:42:51.596Z,80.50
2018-07-04T01:45:35.517Z,80.60
2018-07-04T01:48:19.577Z,80.80
2018-07-04T01:51:03.655Z,80.50
2018-07-04T01:53:47.655Z,80.30
2018-07-04T01:56:31.691Z,80.50
2018-07-04T01:59:15.761Z,80.10
2018-07-04T02:01:59.906Z,80.20
2018-07-04T02:04:43.938Z,80.50
2018-07-04T02:07:28.018Z,80.10
2018-07-04T02:10:12.090Z,80.80
2018-07-04T02:12:56.094Z,80.90
2018-07-04T02:15:40.118Z,81.00
2018-07-04T02:18:24.249Z,80.80
2018-07-04T02:21:08.138Z,80.60
2018-07-04T02:23:52.222Z,81.20
2018-07-04T02:26:36.283Z,81.40
2018-07-04T02:29:20.464Z,81.10
2018-07-04T02:32:04.360Z,81.10
2018-07-04T02:34:48.412Z,81.40
2018-07-04T02:37:32.338Z,81.60
2018-07-04T02:40:17.054Z,81.70
2018-07-04T02:43:00.966Z,82.20
2018-07-04T02:45:44.903Z,82.50
2018-07-04T02:48:28.859Z,83.00
2018-07-04T02:51:12.942Z,83.30
2018-07-04T02:53:57.160Z,83.50
2018-07-04T02:59:19.458Z,84.00
2018-07-04T03:02:03.437Z,84.20
2018-07-04T03:04:47.627Z,85.80
2018-07-04T03:07:31.562Z,84.70
2018-07-04T03:10:15.545Z,85.00
2018-07-04T03:12:59.590Z,85.20
2018-07-04T03:15:43.743Z,85.10
2018-07-04T03:18:27.983Z,85.30
2018-07-04T03:21:12.061Z,85.30
2018-07-04T03:23:56.024Z,85.50
2018-07-04T03:26:40.190Z,85.60
2018-07-04T03:29:24.311Z,85.70
2018-07-04T03:32:08.389Z,85.90
2018-07-04T03:34:52.453Z,85.60
2018-07-04T03:37:36.947Z,85.50
2018-07-04T03:40:20.937Z,85.80
2018-07-04T03:43:05.115Z,85.90
2018-07-04T03:45:49.423Z,85.90
2018-07-04T03:48:33.662Z,85.90
2018-07-04T03:51:17.754Z,85.70
2018-07-04T03:54:01.872Z,85.90
2018-07-04T03:56:45.906Z,85.20
2018-07-04T03:59:30.036Z,85.40
2018-07-04T04:02:14.291Z,85.40
2018-07-04T04:04:58.772Z,85.00
2018-07-04T04:07:42.990Z,85.20
2018-07-04T04:10:27.440Z,85.10
2018-07-04T04:13:11.624Z,85.70
2018-07-04T04:15:55.692Z,85.80
2018-07-04T04:21:18.568Z,86.20
2018-07-04T04:24:03.071Z,85.30
2018-07-04T04:26:47.170Z,84.90
2018-07-04T04:29:31.515Z,85.10
2018-07-04T04:32:15.804Z,85.10
2018-07-04T04:35:00.217Z,85.00
2018-07-04T04:37:44.676Z,85.10
2018-07-04T04:40:28.898Z,85.50
2018-07-04T04:43:13.722Z,84.90
2018-07-04T04:45:58.045Z,85.00
2018-07-04T04:48:42.785Z,82.90
2018-07-04T04:51:26.870Z,84.20
2018-07-04T04:54:11.067Z,83.10
2018-07-04T04:56:55.316Z,83.40
2018-07-04T04:59:39.774Z,82.70
2018-07-04T05:02:23.837Z,82.10
2018-07-04T05:05:08.236Z,82.00
2018-07-04T05:07:52.395Z,82.50
2018-07-04T05:10:36.700Z,80.40
2018-07-04T05:13:22.116Z,79.20
2018-07-04T05:16:06.144Z,79.00
2018-07-04T05:18:50.324Z,78.90
2018-07-04T05:21:34.428Z,79.10
2018-07-04T05:24:18.505Z,78.80
2018-07-04T05:27:02.699Z,78.40
2018-07-04T05:29:46.720Z,78.70
2018-07-04T05:32:30.882Z,78.40
2018-07-04T05:35:15.025Z,78.00
2018-07-04T05:37:58.901Z,77.50
2018-07-04T05:40:42.720Z,77.80
2018-07-04T05:43:26.685Z,77.50
2018-07-04T05:46:10.754Z,77.30
2018-07-04T05:48:54.769Z,76.60
2018-07-04T05:51:38.800Z,75.50
2018-07-04T05:54:23.084Z,75.40
2018-07-04T05:57:07.020Z,73.90
2018-07-04T05:59:51.067Z,71.50
2018-07-04T06:02:35.099Z,72.00
2018-07-04T06:05:19.348Z,72.10
2018-07-04T06:08:03.318Z,71.50
2018-07-04T06:10:47.308Z,71.00
2018-07-04T06:13:31.646Z,70.70
2018-07-04T06:16:15.548Z,70.30
2018-07-04T06:18:59.561Z,69.40
2018-07-04T06:21:43.581Z,68.00
2018-07-04T06:24:27.692Z,67.20
2018-07-04T06:27:11.907Z,66.70
2018-07-04T06:29:55.828Z,67.00
2018-07-04T06:32:39.899Z,64.60
2018-07-04T06:35:23.961Z,63.70
2018-07-04T06:37:55.542Z,63.20
2018-07-04T06:42:59.233Z,63.00
2018-07-04T06:45:30.884Z,62.20
2018-07-04T06:48:02.543Z,62.50
2018-07-04T06:50:34.301Z,61.20
2018-07-04T06:53:06.094Z,60.20
2018-07-04T06:55:37.796Z,60.30
2018-07-04T06:58:09.625Z,60.00
2018-07-04T07:00:41.377Z,60.50
2018-07-04T07:03:25.815Z,60.50
2018-07-04T07:06:10.367Z,58.90
2018-07-04T07:08:54.606Z,58.30
2018-07-04T07:11:38.779Z,58.70
2018-07-04T07:14:23.326Z,72.30
2018-07-04T07:17:07.465Z,58.40
2018-07-04T07:19:51.912Z,58.30
2018-07-04T07:22:37.111Z,58.00
2018-07-04T07:25:21.493Z,58.10
2018-07-04T07:28:05.804Z,57.40
2018-07-04T07:30:50.152Z,56.90
2018-07-04T07:33:34.131Z,57.60
2018-07-04T07:36:18.333Z,57.60
2018-07-04T07:39:02.892Z,58.00
2018-07-04T07:41:47.026Z,57.50
2018-07-04T07:44:32.549Z,57.30
2018-07-04T07:47:16.650Z,57.90
2018-07-04T07:50:00.810Z,58.00
2018-07-04T07:52:44.803Z,57.70
2018-07-04T07:55:29.319Z,57.30
2018-07-04T07:58:13.400Z,57.50
2018-07-04T08:03:36.190Z,57.30
2018-07-04T08:06:21.027Z,56.70
2018-07-04T08:09:05.434Z,56.70
2018-07-04T08:11:49.915Z,56.00
2018-07-04T08:14:34.397Z,56.40
2018-07-04T08:17:18.722Z,56.40
2018-07-04T08:20:03.128Z,56.60
2018-07-04T08:22:47.377Z,56.40
2018-07-04T08:25:31.386Z,55.80
2018-07-04T08:28:15.521Z,55.60
2018-07-04T08:30:59.799Z,55.30
2018-07-04T08:33:43.835Z,55.60
2018-07-04T08:36:28.026Z,55.70
2018-07-04T08:39:12.434Z,55.30
2018-07-04T08:41:56.640Z,54.70
2018-07-04T08:44:40.849Z,54.60
2018-07-04T08:47:25.130Z,54.60
2018-07-04T08:50:09.501Z,54.50
2018-07-04T08:52:53.849Z,53.70
2018-07-04T08:55:38.021Z,53.70
2018-07-04T08:58:22.536Z,54.20
2018-07-04T09:01:06.619Z,54.20
2018-07-04T09:03:50.776Z,53.70
2018-07-04T09:06:35.409Z,54.10
2018-07-04T09:09:19.629Z,54.10
2018-07-04T09:12:03.840Z,53.90
2018-07-04T09:14:48.030Z,53.30
2018-07-04T09:17:32.172Z,53.20
2018-07-04T09:20:16.262Z,52.50
2018-07-04T09:23:00.581Z,52.10
2018-07-04T09:25:44.796Z,52.30
2018-07-04T09:28:29.498Z,51.10
2018-07-04T09:31:14.264Z,50.80
2018-07-04T09:33:58.727Z,49.90
2018-07-04T09:36:43.264Z,49.40
2018-07-04T09:39:27.486Z,49.20
2018-07-04T09:42:11.502Z,49.00
2018-07-04T09:44:55.813Z,48.60
2018-07-04T09:50:18.432Z,45.40
2018-07-04T09:53:02.760Z,49.70
2018-07-04T09:55:47.226Z,47.00
2018-07-04T09:58:31.870Z,46.10
2018-07-04T10:01:22.583Z,47.00
2018-07-04T10:04:06.833Z,46.80
2018-07-04T10:06:50.960Z,45.20
2018-07-04T10:09:35.620Z,43.20
2018-07-04T10:12:20.068Z,43.10
2018-07-04T10:15:04.586Z,43.80
2018-07-04T10:20:27.887Z,54.40
2018-07-04T10:23:12.413Z,59.50
2018-07-04T10:25:56.809Z,57.70
2018-07-04T10:28:41.003Z,57.70
2018-07-04T10:31:25.186Z,54.40
2018-07-04T10:34:09.408Z,44.60
2018-07-04T10:36:53.638Z,44.30
2018-07-04T10:39:38.381Z,44.30
2018-07-04T10:42:22.766Z,44.50
2018-07-04T10:45:07.210Z,45.10
2018-07-04T10:47:52.297Z,45.40
2018-07-04T10:50:36.566Z,44.60
2018-07-04T10:53:20.662Z,44.50
2018-07-04T10:56:05.495Z,48.40
2018-07-04T10:58:49.579Z,44.20
2018-07-04T11:01:33.961Z,44.00
2018-07-04T11:04:18.163Z,44.30
2018-07-04T11:07:02.672Z,45.00
2018-07-04T11:09:46.857Z,43.70
2018-07-04T11:15:09.784Z,58.90
2018-07-04T11:20:32.846Z,44.00
2018-07-04T11:23:17.019Z,43.60
2018-07-04T11:26:01.081Z,43.40
2018-07-04T11:28:45.279Z,42.60
2018-07-04T11:31:29.328Z,43.40
2018-07-04T11:34:13.633Z,42.20
2018-07-04T11:36:57.995Z,42.60
2018-07-04T11:39:42.278Z,41.40
2018-07-04T11:42:26.304Z,41.30
2018-07-04T11:45:10.804Z,41.30
2018-07-04T11:47:42.411Z,41.50
2018-07-04T11:50:14.399Z,41.10
2018-07-04T11:52:46.243Z,41.10
2018-07-04T11:55:18.030Z,41.00
2018-07-04T11:57:49.735Z,40.30
2018-07-04T12:00:21.576Z,40.60
2018-07-04T12:02:53.127Z,40.40
2018-07-04T12:05:37.406Z,39.60
2018-07-04T12:08:09.286Z,39.00
2018-07-04T12:10:41.603Z,38.70
2018-07-04T12:13:13.354Z,39.00
2018-07-04T12:15:45.739Z,38.40
2018-07-04T12:18:17.556Z,38.40
2018-07-04T12:20:49.346Z,38.30
2018-07-04T12:23:21.165Z,37.90
2018-07-04T12:25:53.035Z,37.90
2018-07-04T12:28:24.896Z,38.50
2018-07-04T12:30:56.698Z,38.00
2018-07-04T12:33:28.773Z,38.20
2018-07-04T12:36:00.608Z,36.10
2018-07-04T12:38:32.561Z,34.20
2018-07-04T12:43:36.976Z,32.20
2018-07-04T12:46:09.287Z,33.40
2018-07-04T12:48:41.292Z,33.10
2018-07-04T12:51:13.039Z,32.80
2018-07-04T12:53:59.920Z,33.40
2018-07-04T12:56:47.718Z,32.20
2018-07-04T12:59:33.209Z,32.70
2018-07-04T13:02:20.911Z,32.30
2018-07-04T13:05:05.603Z,32.60
2018-07-04T13:07:51.214Z,31.90
2018-07-04T13:10:36.355Z,30.20
2018-07-04T13:13:22.145Z,29.70
2018-07-04T13:16:07.668Z,30.40
2018-07-04T13:18:54.484Z,30.60
2018-07-04T13:21:40.732Z,29.10
2018-07-04T13:24:25.374Z,29.90
2018-07-04T13:27:09.618Z,29.30
2018-07-04T13:29:53.890Z,29.30
2018-07-04T13:32:38.280Z,29.80
2018-07-04T13:35:22.628Z,29.70
2018-07-04T13:38:07.037Z,29.50
2018-07-04T13:40:51.342Z,29.90
2018-07-04T13:43:35.542Z,30.00
2018-07-04T13:46:19.634Z,30.00
2018-07-04T13:49:03.995Z,30.60
2018-07-04T13:51:49.198Z,30.90
2018-07-04T13:54:33.986Z,31.90
2018-07-04T13:57:18.175Z,31.20
2018-07-04T14:00:02.844Z,31.70
2018-07-04T14:02:47.303Z,31.40
2018-07-04T14:05:31.739Z,31.70
2018-07-04T14:08:15.953Z,32.10
2018-07-04T14:11:00.379Z,32.50
2018-07-04T14:13:44.700Z,32.10
2018-07-04T14:16:28.750Z,31.90
2018-07-04T14:19:13.229Z,32.40
2018-07-04T14:24:36.175Z,32.20
2018-07-04T14:27:20.318Z,32.30
2018-07-04T14:30:04.527Z,32.20
2018-07-04T14:32:48.846Z,32.60
2018-07-04T14:35:33.106Z,32.00
2018-07-04T14:38:17.672Z,32.20
2018-07-04T14:41:01.979Z,32.10
2018-07-04T14:43:46.354Z,32.30
2018-07-04T14:46:30.721Z,32.20
2018-07-04T14:49:15.205Z,32.50
2018-07-04T14:51:59.653Z,32.40
2018-07-04T14:54:44.041Z,32.30
2018-07-04T14:57:28.431Z,32.20
2018-07-04T15:00:12.986Z,32.50
2018-07-04T15:02:57.089Z,31.80
2018-07-04T15:05:41.392Z,32.50
2018-07-04T15:08:25.696Z,32.10
2018-07-04T15:11:10.314Z,32.30
2018-07-04T15:13:54.808Z,32.50
2018-07-04T15:16:38.870Z,33.20
2018-07-04T15:19:23.465Z,32.00
2018-07-04T15:22:07.639Z,32.30
2018-07-04T15:24:51.830Z,30.80
2018-07-04T15:27:36.152Z,31.80
2018-07-04T15:30:20.669Z,32.00
2018-07-04T15:33:04.748Z,32.10
2018-07-04T15:35:48.821Z,31.90
2018-07-04T15:38:33.109Z,32.10
2018-07-04T15:41:17.576Z,32.70
2018-07-04T15:44:01.888Z,32.10
2018-07-04T15:46:46.073Z,32.00
2018-07-04T15:49:30.249Z,31.90
2018-07-04T15:52:14.417Z,32.40
2018-07-04T15:54:58.519Z,32.50
2018-07-04T15:57:42.558Z,32.50
2018-07-04T16:00:26.714Z,32.40
2018-07-04T16:03:12.331Z,32.30
2018-07-04T16:05:56.738Z,32.60
2018-07-04T16:08:40.853Z,32.10
2018-07-04T16:11:24.972Z,32.00
2018-07-04T16:14:09.758Z,31.90
2018-07-04T16:16:53.994Z,32.10
2018-07-04T16:19:39.370Z,31.70
2018-07-04T16:22:23.912Z,31.70
2018-07-04T16:25:08.221Z,32.10
2018-07-04T16:27:52.645Z,32.30
2018-07-04T16:30:37.090Z,32.60
2018-07-04T16:33:21.349Z,32.80
2018-07-04T16:36:05.668Z,32.80
2018-07-04T16:38:50.090Z,32.60
2018-07-04T16:41:34.743Z,32.50
2018-07-04T16:44:20.570Z,32.10
2018-07-04T16:47:05.034Z,32.40
2018-07-04T16:49:49.301Z,32.00
2018-07-04T16:52:33.869Z,31.70
2018-07-04T16:55:18.114Z,32.10
2018-07-04T16:58:02.223Z,31.50
2018-07-04T17:00:46.378Z,32.00
2018-07-04T17:03:30.609Z,32.50
2018-07-04T17:06:14.742Z,32.50
2018-07-04T17:08:58.926Z,32.50
2018-07-04T17:11:43.316Z,32.30
2018-07-04T17:14:27.506Z,32.40
2018-07-04T17:17:11.667Z,32.90
2018-07-04T17:19:55.780Z,33.00
2018-07-04T17:22:40.100Z,33.50
2018-07-04T17:25:24.553Z,33.20
2018-07-04T17:28:08.830Z,32.70
2018-07-04T17:30:53.118Z,33.00
2018-07-04T17:33:37.374Z,33.70
2018-07-04T17:36:21.455Z,34.00
2018-07-04T17:39:06.203Z,34.20
2018-07-04T17:41:50.551Z,34.00
2018-07-04T17:44:34.815Z,34.30
2018-07-04T17:47:18.798Z,34.20
2018-07-04T17:50:02.783Z,34.20
2018-07-04T17:52:48.306Z,34.40
2018-07-04T17:55:32.359Z,34.50
2018-07-04T17:58:16.521Z,34.20
2018-07-04T18:01:00.730Z,34.80
2018-07-04T18:03:44.823Z,34.80
2018-07-04T18:06:30.400Z,35.10
2018-07-04T18:09:14.394Z,35.10
2018-07-04T18:11:58.395Z,35.30
2018-07-04T18:14:42.432Z,35.40
2018-07-04T18:17:26.662Z,35.40
2018-07-04T18:20:10.653Z,35.50
2018-07-04T18:22:55.519Z,36.40
2018-07-04T18:25:39.684Z,37.00
2018-07-04T18:28:23.625Z,37.50
2018-07-04T18:31:07.843Z,37.90
2018-07-04T18:33:53.244Z,38.20
2018-07-04T18:36:37.657Z,38.50
2018-07-04T18:39:23.570Z,38.80
2018-07-04T18:42:18.431Z,39.00
2018-07-04T18:45:02.741Z,39.40
2018-07-04T18:47:46.585Z,39.80
2018-07-04T18:50:30.586Z,39.90
2018-07-04T18:53:14.569Z,40.10
2018-07-04T18:58:37.388Z,39.90
2018-07-04T19:01:21.323Z,40.50
2018-07-04T19:04:05.357Z,40.70
2018-07-04T19:06:49.463Z,41.50
2018-07-04T19:09:35.430Z,41.00
2018-07-04T19:12:29.569Z,41.30
2018-07-04T19:15:13.804Z,41.30
2018-07-04T19:17:59.055Z,41.60
2018-07-04T19:20:46.335Z,41.70
2018-07-04T19:23:31.588Z,42.00
2018-07-04T19:26:17.905Z,42.10
2018-07-04T19:29:08.025Z,42.30
2018-07-04T19:31:59.032Z,46.60
2018-07-04T19:34:44.215Z,43.00
2018-07-04T19:37:29.757Z,42.90
2018-07-04T19:40:15.295Z,42.90
2018-07-04T19:43:15.466Z,43.20
2018-07-04T19:45:59.774Z,43.30
2018-07-04T19:48:48.615Z,43.70
2018-07-04T19:54:13.053Z,43.60
2018-07-04T19:56:58.808Z,44.20
2018-07-04T19:59:44.856Z,44.20
2018-07-04T20:02:28.854Z,44.80
2018-07-04T20:05:13.129Z,44.90
2018-07-04T20:10:36.486Z,44.60
2018-07-04T20:13:22.264Z,45.30
2018-07-04T20:18:45.563Z,44.80
2018-07-04T20:21:29.932Z,45.70
2018-07-04T20:24:13.917Z,45.80
2018-07-04T20:27:00.955Z,46.30
2018-07-04T20:29:46.489Z,46.40
2018-07-04T20:32:30.730Z,47.10
2018-07-04T20:35:14.922Z,90.70
2018-07-04T20:38:00.268Z,47.80
2018-07-04T20:40:44.551Z,48.10
2018-07-04T20:43:30.534Z,48.30
2018-07-04T20:46:16.023Z,48.70
2018-07-04T20:49:01.747Z,48.20
2018-07-04T20:54:25.026Z,48.40
2018-07-04T20:57:10.487Z,49.50
2018-07-04T20:59:57.701Z,49.40
2018-07-04T21:02:42.981Z,49.80
2018-07-04T21:05:29.909Z,50.10
2018-07-04T21:08:14.567Z,50.40
2018-07-04T21:11:00.129Z,50.70
2018-07-04T21:13:46.860Z,51.00
2018-07-04T21:16:30.934Z,51.20
2018-07-04T21:19:15.177Z,51.70
2018-07-04T21:21:59.222Z,51.90
2018-07-04T21:24:43.257Z,52.30
2018-07-04T21:27:27.628Z,52.40
2018-07-04T21:30:17.939Z,52.80
2018-07-04T21:33:02.462Z,52.80
2018-07-04T21:35:48.104Z,53.00
2018-07-04T21:38:32.615Z,53.20
2018-07-04T21:41:16.734Z,53.40
2018-07-04T21:46:39.913Z,54.50
2018-07-04T21:49:24.079Z,54.80
2018-07-04T21:52:08.189Z,55.30
2018-07-04T21:54:52.222Z,55.70
2018-07-04T21:57:36.179Z,56.20
2018-07-04T22:00:22.456Z,56.70
2018-07-04T22:03:06.517Z,56.80
2018-07-04T22:05:50.644Z,56.70
2018-07-04T22:08:34.599Z,57.40
2018-07-04T22:11:18.626Z,57.80
2018-07-04T22:14:02.755Z,58.20
2018-07-04T22:16:46.788Z,58.50
2018-07-04T22:19:30.690Z,59.00
2018-07-04T22:22:14.762Z,59.30
2018-07-04T22:24:58.578Z,60.00
2018-07-04T22:27:42.797Z,60.90
2018-07-04T22:30:27.045Z,61.00
2018-07-04T22:33:11.056Z,61.90
2018-07-04T22:35:55.138Z,62.50
2018-07-04T22:38:39.029Z,63.20
2018-07-04T22:41:23.107Z,64.00
2018-07-04T22:44:07.564Z,64.30
2018-07-04T22:46:51.843Z,64.90
2018-07-04T22:49:35.936Z,65.40
2018-07-04T22:52:19.906Z,66.20
2018-07-04T22:55:04.367Z,66.20
2018-07-04T22:57:48.448Z,66.10
2018-07-04T23:00:32.482Z,66.30
2018-07-04T23:03:16.439Z,66.20
2018-07-04T23:06:00.734Z,66.60
2018-07-04T23:08:45.049Z,66.80
2018-07-04T23:11:29.398Z,67.40
2018-07-04T23:14:13.357Z,67.80
2018-07-04T23:16:57.226Z,68.00
2018-07-04T23:19:41.398Z,68.90
2018-07-04T23:22:25.683Z,68.70
2018-07-04T23:25:09.569Z,69.00
2018-07-04T23:27:53.660Z,69.40
2018-07-04T23:30:37.506Z,69.80
2018-07-04T23:33:21.339Z,70.60
2018-07-04T23:36:06.477Z,70.30
2018-07-04T23:38:50.376Z,73.70
2018-07-04T23:41:34.383Z,70.90
2018-07-04T23:44:18.501Z,70.90
2018-07-04T23:47:02.702Z,70.90
2018-07-04T23:49:46.739Z,70.90
2018-07-04T23:52:31.085Z,70.90
2018-07-04T23:55:15.071Z,70.90
2018-07-04T23:57:59.211Z,70.90
